Iberica Hav — C6YI3 — position and weather

sailwx.info

Track history (hours):
 
Tides and Currents Weather Stations Pressure Air Temp Water Temp Dewpoint Dewpoint Depression Visibility Wind Speed Wind Dir Waves Ship Positions

Iberica Hav

Last reported at 2016-Dec-03 13:22 UTC. Time now 2016-Dec-04 18:23 UTC.
Position N 53°01' E 001°09'.

Length 88 m; draft 2.7 m.

Type: Cargo ship. MMSI: 311034400.

Date/timePositionNaut miles runAvg speedWind from/ knotsBaromVisibWave heightAir tempDewpointWater temp
2016-Dec-03 13:22N 53°01' E 001°09'7 9.0
2016-Dec-03 12:33N 52°57' E 001°20'8 8.1
2016-Dec-03 11:33N 52°53' E 001°31'7 6.8
2016-Dec-03 10:33N 52°48' E 001°39'8 5.6
2016-Dec-03 09:04N 52°41' E 001°46'4 5.7
2016-Dec-03 08:20N 52°37' E 001°46'23 8.3
2016-Dec-03 05:33N 52°14' E 001°50'1010.1
2016-Dec-03 04:33N 52°03' E 001°50'1010.3
2016-Dec-03 03:33N 51°53' E 001°49'9 9.5
2016-Dec-03 02:33N 51°44' E 001°49'11 8.6
2016-Dec-03 01:17N 51°33' E 001°47'6 8.3
2016-Dec-03 00:33N 51°27' E 001°45'8 7.8
2016-Dec-02 23:33N 51°19' E 001°41'6 6.1
2016-Dec-02 22:33N 51°14' E 001°38'5 4.7
2016-Dec-02 21:33N 51°09' E 001°37'5 5.0
2016-Dec-02 20:33N 51°04' E 001°38'5 5.4
2016-Dec-02 19:33N 50°59' E 001°34'6 6.0
2016-Dec-02 18:33N 50°54' E 001°30'80 8.9
2016-Dec-02 09:33N 49°51' E 000°13'1010.5
2016-Dec-02 08:33N 49°43' E 000°03'9 8.7
2016-Dec-02 07:33N 49°35' W 000°03'6 6.3
2016-Dec-02 06:33N 49°29' W 000°03'10 9.7
2016-Dec-02 05:33N 49°26' E 000°12'1211.5
2016-Dec-02 04:33N 49°29' E 000°29'11 7.8
2016-Dec-02 03:09N 49°31' E 000°45'5 0.1
2016-Nov-30 09:33N 49°26' E 000°49'6 5.9
2016-Nov-30 08:34N 49°28' E 000°40'1010.0
2016-Nov-30 07:33N 49°27' E 000°25'1211.5
2016-Nov-30 06:33N 49°26' E 000°07'8 8.1
2016-Nov-30 05:33N 49°28' W 000°05'0 0.3
2016-Nov-30 04:32N 49°28' W 000°05'0 0.0
2016-Nov-30 03:32N 49°28' W 000°05'0 0.0
2016-Nov-30 02:32N 49°28' W 000°05'0 0.0
2016-Nov-30 01:32N 49°28' W 000°05'0 0.0
2016-Nov-30 00:32N 49°28' W 000°05'0 0.0
2016-Nov-29 23:32N 49°28' W 000°05'0 0.1
2016-Nov-29 22:32N 49°28' W 000°05'3 3.1
2016-Nov-29 21:33N 49°31' W 000°07'8 7.9
2016-Nov-29 20:33N 49°39' W 000°07'8 8.2
2016-Nov-29 19:33N 49°48' W 000°07'9 9.0
2016-Nov-29 18:33N 49°56' W 000°05'9 9.3
2016-Nov-29 17:33N 50°06' W 000°04'19 9.5
2016-Nov-29 15:33N 50°25' W 000°02'10 9.8
2016-Nov-29 14:33N 50°31' E 000°10'48 9.4
2016-Nov-29 09:29N 50°57' E 001°13'910.2
2016-Nov-29 08:33N 51°03' E 001°25'1312.6
2016-Nov-29 07:34N 51°11' E 001°40'1211.7
2016-Nov-29 06:33N 51°20' E 001°51'1010.5
2016-Nov-29 05:33N 51°29' E 002°02'9 9.4
2016-Nov-29 04:33N 51°36' E 002°12'64 8.0
2016-Nov-28 20:33N 52°03' E 003°46'1010.0
2016-Nov-28 19:33N 52°00' E 004°01'1212.1
2016-Nov-28 18:33N 51°54' E 004°18'9 8.7
2016-Nov-28 17:33N 51°50' E 004°31'7 7.2
2016-Nov-28 16:33N 51°44' E 004°38'3 2.5
2016-Nov-28 15:17N 51°42' E 004°35'0 0.0
2016-Nov-28 14:32N 51°42' E 004°35'0 0.0
2016-Nov-28 13:26N 51°42' E 004°35'0 0.0
2016-Nov-28 12:32N 51°42' E 004°35'0 0.0
2016-Nov-28 11:23N 51°42' E 004°35'0 0.0
2016-Nov-28 10:29N 51°42' E 004°35'0 0.0
2016-Nov-28 09:33N 51°42' E 004°35'0 0.0
2016-Nov-28 08:20N 51°42' E 004°35'0 0.0
2016-Nov-28 06:32N 51°42' E 004°35'0 0.0
2016-Nov-28 05:29N 51°42' E 004°35'0 0.0
2016-Nov-28 04:32N 51°42' E 004°35'4 4.2
2016-Nov-28 03:33N 51°45' E 004°38'8 7.8
2016-Nov-28 02:33N 51°50' E 004°27'9 8.8
2016-Nov-28 01:33N 51°55' E 004°15'9 8.9
2016-Nov-28 00:34N 51°59' E 004°03'8 7.9
2016-Nov-27 23:32N 51°59' E 003°50'3 0.5
2016-Nov-27 17:20N 51°57' E 003°46'0 0.0
2016-Nov-27 09:32N 51°57' E 003°46'0 0.0
2016-Nov-27 08:32N 51°57' E 003°46'0 0.0
2016-Nov-27 07:11N 51°57' E 003°46'0 0.0
2016-Nov-27 06:14N 51°57' E 003°46'0 0.0
2016-Nov-27 05:26N 51°57' E 003°46'0 0.0
2016-Nov-27 04:26N 51°57' E 003°46'0 0.1
2016-Nov-27 02:14N 51°57' E 003°46'0 0.0
2016-Nov-27 01:11N 51°57' E 003°46'0 0.0
2016-Nov-26 18:32N 51°57' E 003°46'13 6.3
2016-Nov-26 16:32N 51°55' E 003°26'8 8.0
2016-Nov-26 15:34N 51°53' E 003°14'37 9.2
2016-Nov-26 11:32N 51°33' E 002°24'10 9.8
2016-Nov-26 10:32N 51°25' E 002°14'9 9.6
2016-Nov-26 09:33N 51°17' E 002°06'9 9.5
2016-Nov-26 08:33N 51°10' E 001°55'9 8.5
2016-Nov-26 07:33N 51°04' E 001°46'7 7.4
2016-Nov-26 06:33N 50°59' E 001°38'7 6.1
2016-Nov-26 05:21N 50°53' E 001°30'172 5.7
2016-Nov-24 23:25N 50°14' W 002°52'4 4.2
2016-Nov-24 22:33N 50°13' W 002°58'4 4.2
2016-Nov-24 21:33N 50°13' W 003°05'4 4.4
2016-Nov-24 20:33N 50°13' W 003°11'5 4.8
2016-Nov-24 19:34N 50°12' W 003°19'5 5.0
2016-Nov-24 18:33N 50°12' W 003°27'5 5.3
2016-Nov-24 17:34N 50°12' W 003°35'6 5.5
2016-Nov-24 16:32N 50°11' W 003°44'8 7.0
2016-Nov-24 15:26N 50°12' W 003°56'7 7.6
2016-Nov-24 14:33N 50°14' W 004°06'9 8.2
2016-Nov-24 13:25N 50°16' W 004°20'7 7.9
2016-Nov-24 12:31N 50°17' W 004°31'1 0.0
2016-Nov-23 14:33N 50°17' W 004°32'11 9.8
2016-Nov-23 13:24N 50°14' W 004°15'  
Track history (hours):
 
Tides and Currents Weather Stations Pressure Air Temp Water Temp Dewpoint Dewpoint Depression Visibility Wind Speed Wind Dir Waves Ship Positions

Iberica Hav

Last reported at 2016-Dec-03 13:22 UTC. Time now 2016-Dec-04 18:23 UTC.
Position N 53°01' E 001°09'.

Length 88 m; draft 2.7 m.

Type: Cargo ship. MMSI: 311034400.

Date/timePositionNaut miles runAvg speedWind from/ knotsBaromVisibWave heightAir tempDewpointWater temp
2016-Dec-03 13:22N 53°01' E 001°09'7 9.0
2016-Dec-03 12:33N 52°57' E 001°20'8 8.1
2016-Dec-03 11:33N 52°53' E 001°31'7 6.8
2016-Dec-03 10:33N 52°48' E 001°39'8 5.6
2016-Dec-03 09:04N 52°41' E 001°46'4 5.7
2016-Dec-03 08:20N 52°37' E 001°46'23 8.3
2016-Dec-03 05:33N 52°14' E 001°50'1010.1
2016-Dec-03 04:33N 52°03' E 001°50'1010.3
2016-Dec-03 03:33N 51°53' E 001°49'9 9.5
2016-Dec-03 02:33N 51°44' E 001°49'11 8.6
2016-Dec-03 01:17N 51°33' E 001°47'6 8.3
2016-Dec-03 00:33N 51°27' E 001°45'8 7.8
2016-Dec-02 23:33N 51°19' E 001°41'6 6.1
2016-Dec-02 22:33N 51°14' E 001°38'5 4.7
2016-Dec-02 21:33N 51°09' E 001°37'5 5.0
2016-Dec-02 20:33N 51°04' E 001°38'5 5.4
2016-Dec-02 19:33N 50°59' E 001°34'6 6.0
2016-Dec-02 18:33N 50°54' E 001°30'80 8.9
2016-Dec-02 09:33N 49°51' E 000°13'1010.5
2016-Dec-02 08:33N 49°43' E 000°03'9 8.7
2016-Dec-02 07:33N 49°35' W 000°03'6 6.3
2016-Dec-02 06:33N 49°29' W 000°03'10 9.7
2016-Dec-02 05:33N 49°26' E 000°12'1211.5
2016-Dec-02 04:33N 49°29' E 000°29'11 7.8
2016-Dec-02 03:09N 49°31' E 000°45'5 0.1
2016-Nov-30 09:33N 49°26' E 000°49'6 5.9
2016-Nov-30 08:34N 49°28' E 000°40'1010.0
2016-Nov-30 07:33N 49°27' E 000°25'1211.5
2016-Nov-30 06:33N 49°26' E 000°07'8 8.1
2016-Nov-30 05:33N 49°28' W 000°05'0 0.3
2016-Nov-30 04:32N 49°28' W 000°05'0 0.0
2016-Nov-30 03:32N 49°28' W 000°05'0 0.0
2016-Nov-30 02:32N 49°28' W 000°05'0 0.0
2016-Nov-30 01:32N 49°28' W 000°05'0 0.0
2016-Nov-30 00:32N 49°28' W 000°05'0 0.0
2016-Nov-29 23:32N 49°28' W 000°05'0 0.1
2016-Nov-29 22:32N 49°28' W 000°05'3 3.1
2016-Nov-29 21:33N 49°31' W 000°07'8 7.9
2016-Nov-29 20:33N 49°39' W 000°07'8 8.2
2016-Nov-29 19:33N 49°48' W 000°07'9 9.0
2016-Nov-29 18:33N 49°56' W 000°05'9 9.3
2016-Nov-29 17:33N 50°06' W 000°04'19 9.5
2016-Nov-29 15:33N 50°25' W 000°02'10 9.8
2016-Nov-29 14:33N 50°31' E 000°10'48 9.4
2016-Nov-29 09:29N 50°57' E 001°13'910.2
2016-Nov-29 08:33N 51°03' E 001°25'1312.6
2016-Nov-29 07:34N 51°11' E 001°40'1211.7
2016-Nov-29 06:33N 51°20' E 001°51'1010.5
2016-Nov-29 05:33N 51°29' E 002°02'9 9.4
2016-Nov-29 04:33N 51°36' E 002°12'64 8.0
2016-Nov-28 20:33N 52°03' E 003°46'1010.0
2016-Nov-28 19:33N 52°00' E 004°01'1212.1
2016-Nov-28 18:33N 51°54' E 004°18'9 8.7
2016-Nov-28 17:33N 51°50' E 004°31'7 7.2
2016-Nov-28 16:33N 51°44' E 004°38'3 2.5
2016-Nov-28 15:17N 51°42' E 004°35'0 0.0
2016-Nov-28 14:32N 51°42' E 004°35'0 0.0
2016-Nov-28 13:26N 51°42' E 004°35'0 0.0
2016-Nov-28 12:32N 51°42' E 004°35'0 0.0
2016-Nov-28 11:23N 51°42' E 004°35'0 0.0
2016-Nov-28 10:29N 51°42' E 004°35'0 0.0
2016-Nov-28 09:33N 51°42' E 004°35'0 0.0
2016-Nov-28 08:20N 51°42' E 004°35'0 0.0
2016-Nov-28 06:32N 51°42' E 004°35'0 0.0
2016-Nov-28 05:29N 51°42' E 004°35'0 0.0
2016-Nov-28 04:32N 51°42' E 004°35'4 4.2
2016-Nov-28 03:33N 51°45' E 004°38'8 7.8
2016-Nov-28 02:33N 51°50' E 004°27'9 8.8
2016-Nov-28 01:33N 51°55' E 004°15'9 8.9
2016-Nov-28 00:34N 51°59' E 004°03'8 7.9
2016-Nov-27 23:32N 51°59' E 003°50'3 0.5
2016-Nov-27 17:20N 51°57' E 003°46'0 0.0
2016-Nov-27 09:32N 51°57' E 003°46'0 0.0
2016-Nov-27 08:32N 51°57' E 003°46'0 0.0
2016-Nov-27 07:11N 51°57' E 003°46'0 0.0
2016-Nov-27 06:14N 51°57' E 003°46'0 0.0
2016-Nov-27 05:26N 51°57' E 003°46'0 0.0
2016-Nov-27 04:26N 51°57' E 003°46'0 0.1
2016-Nov-27 02:14N 51°57' E 003°46'0 0.0
2016-Nov-27 01:11N 51°57' E 003°46'0 0.0
2016-Nov-26 18:32N 51°57' E 003°46'13 6.3
2016-Nov-26 16:32N 51°55' E 003°26'8 8.0
2016-Nov-26 15:34N 51°53' E 003°14'37 9.2
2016-Nov-26 11:32N 51°33' E 002°24'10 9.8
2016-Nov-26 10:32N 51°25' E 002°14'9 9.6
2016-Nov-26 09:33N 51°17' E 002°06'9 9.5
2016-Nov-26 08:33N 51°10' E 001°55'9 8.5
2016-Nov-26 07:33N 51°04' E 001°46'7 7.4
2016-Nov-26 06:33N 50°59' E 001°38'7 6.1
2016-Nov-26 05:21N 50°53' E 001°30'172 5.7
2016-Nov-24 23:25N 50°14' W 002°52'4 4.2
2016-Nov-24 22:33N 50°13' W 002°58'4 4.2
2016-Nov-24 21:33N 50°13' W 003°05'4 4.4
2016-Nov-24 20:33N 50°13' W 003°11'5 4.8
2016-Nov-24 19:34N 50°12' W 003°19'5 5.0
2016-Nov-24 18:33N 50°12' W 003°27'5 5.3
2016-Nov-24 17:34N 50°12' W 003°35'6 5.5
2016-Nov-24 16:32N 50°11' W 003°44'8 7.0
2016-Nov-24 15:26N 50°12' W 003°56'7 7.6
2016-Nov-24 14:33N 50°14' W 004°06'9 8.2
2016-Nov-24 13:25N 50°16' W 004°20'7 7.9
2016-Nov-24 12:31N 50°17' W 004°31'1 0.0
2016-Nov-23 14:33N 50°17' W 004°32'11 9.8
2016-Nov-23 13:24N 50°14' W 004°15'  

Dump ship's entire track history